Time;durP1;ratioP1;P1;durP2;ratioP2;P2;SDS_P1;SDS_P2;PMS_P1;PMS_P2;Temp;Humidity;BMP_temperature;BMP_pressure;BME280_temperature;BME280_humidity;BME280_pressure;Samples;Min_cycle;Max_cycle;Signal;HPM_P1;HPM_P2
2021/08/13 00:02:07;;;;;;;8.90;7.45;;;;;;;;;;4994530;28;20049;-83
2021/08/13 00:04:33;;;;;;;12.85;8.75;;;;;;;;;;4994532;28;20052;-81
2021/08/13 00:07:00;;;;;;;11.48;7.57;;;;;;;;;;4994954;28;20056;-81
2021/08/13 00:09:26;;;;;;;12.85;8.15;;;;;;;;;;4995182;28;20050;-81
2021/08/13 00:11:54;;;;;;;12.32;8.63;;;;;;;;;;4993761;28;20106;-81
2021/08/13 00:14:20;;;;;;;11.13;8.20;;;;;;;;;;4995269;28;20129;-81
2021/08/13 00:16:47;;;;;;;14.73;7.40;;;;;;;;;;4994101;28;20057;-81
2021/08/13 00:19:15;;;;;;;9.77;7.20;;;;;;;;;;4994729;28;20051;-84
2021/08/13 00:21:42;;;;;;;11.13;7.80;;;;;;;;;;4993146;28;20062;-82
2021/08/13 00:24:09;;;;;;;11.68;7.97;;;;;;;;;;4995709;28;20054;-81
2021/08/13 00:26:35;;;;;;;12.25;7.68;;;;;;;;;;4999513;28;20050;-81
2021/08/13 00:29:02;;;;;;;10.27;7.75;;;;;;;;;;5000560;28;20053;-82
2021/08/13 00:31:28;;;;;;;10.05;7.07;;;;;;;;;;4998941;28;20084;-81
2021/08/13 00:33:54;;;;;;;14.20;7.97;;;;;;;;;;4999228;28;20050;-82
2021/08/13 00:36:22;;;;;;;10.75;7.82;;;;;;;;;;4999147;28;20057;-81
2021/08/13 00:38:49;;;;;;;10.63;7.43;;;;;;;;;;4998729;28;20069;-81
2021/08/13 00:41:16;;;;;;;12.32;7.85;;;;;;;;;;4999583;28;20050;-82
2021/08/13 00:43:42;;;;;;;12.05;8.40;;;;;;;;;;4999537;28;20042;-81
2021/08/13 00:46:09;;;;;;;11.63;8.32;;;;;;;;;;4999307;28;20623;-81
2021/08/13 00:48:36;;;;;;;14.88;10.02;;;;;;;;;;4998789;28;20376;-81
2021/08/13 00:51:03;;;;;;;15.82;10.63;;;;;;;;;;4999411;28;20042;-81
2021/08/13 00:53:31;;;;;;;10.65;7.65;;;;;;;;;;4999013;28;20042;-82
2021/08/13 00:55:58;;;;;;;15.02;8.00;;;;;;;;;;4999485;28;20050;-81
2021/08/13 00:58:24;;;;;;;11.13;7.70;;;;;;;;;;4997703;28;20553;-82
2021/08/13 01:00:52;;;;;;;12.43;8.02;;;;;;;;;;5000104;28;20046;-81
2021/08/13 01:03:18;;;;;;;12.70;8.55;;;;;;;;;;4999889;28;20046;-81
2021/08/13 01:05:45;;;;;;;12.38;8.00;;;;;;;;;;4999868;28;20047;-81
2021/08/13 01:08:12;;;;;;;13.15;8.52;;;;;;;;;;4999963;28;20057;-81
2021/08/13 01:10:46;;;;;;;13.15;8.13;;;;;;;;;;4981600;28;20570;-82
2021/08/13 01:13:14;;;;;;;13.25;9.60;;;;;;;;;;4999378;28;20046;-82
2021/08/13 01:15:43;;;;;;;12.15;8.70;;;;;;;;;;4999430;28;20538;-82
2021/08/13 01:18:14;;;;;;;12.15;8.13;;;;;;;;;;5000172;28;20050;-82
2021/08/13 01:20:53;;;;;;;11.30;8.35;;;;;;;;;;4999772;28;20427;-81
2021/08/13 01:23:22;;;;;;;12.63;11.27;;;;;;;;;;4999458;28;20050;-81
2021/08/13 01:25:52;;;;;;;15.32;11.70;;;;;;;;;;4999585;28;20054;-83
2021/08/13 01:28:27;;;;;;;13.02;11.82;;;;;;;;;;4999752;28;20046;-81
2021/08/13 01:30:54;;;;;;;11.63;10.38;;;;;;;;;;4999978;28;20050;-81
2021/08/13 01:33:22;;;;;;;13.20;10.32;;;;;;;;;;4998722;28;20062;-80
2021/08/13 01:35:49;;;;;;;12.60;9.93;;;;;;;;;;4999587;28;20050;-81
2021/08/13 01:38:19;;;;;;;13.60;10.27;;;;;;;;;;4999460;28;20061;-82
2021/08/13 01:40:48;;;;;;;10.70;9.45;;;;;;;;;;4999467;28;20050;-82
2021/08/13 01:43:15;;;;;;;12.50;8.68;;;;;;;;;;4999902;28;20047;-81
2021/08/13 01:45:42;;;;;;;10.63;9.52;;;;;;;;;;4995186;28;20057;-82
2021/08/13 01:48:09;;;;;;;13.32;8.40;;;;;;;;;;4981189;28;20050;-83
2021/08/13 01:50:37;;;;;;;9.35;8.05;;;;;;;;;;4980489;28;20058;-81
2021/08/13 01:53:05;;;;;;;10.82;8.15;;;;;;;;;;4981397;28;20051;-81
2021/08/13 01:55:32;;;;;;;16.88;10.52;;;;;;;;;;4981159;28;20066;-82
2021/08/13 01:57:59;;;;;;;12.82;11.02;;;;;;;;;;4980916;28;20046;-83
2021/08/13 02:00:26;;;;;;;14.32;11.65;;;;;;;;;;4983405;28;20062;-83
2021/08/13 02:02:53;;;;;;;14.30;12.90;;;;;;;;;;5000878;28;20047;-82
2021/08/13 02:05:21;;;;;;;16.17;13.25;;;;;;;;;;5000945;28;20054;-82
2021/08/13 02:07:49;;;;;;;15.68;13.65;;;;;;;;;;5000288;28;20060;-82
2021/08/13 02:10:16;;;;;;;16.27;14.77;;;;;;;;;;5001026;28;20057;-82
2021/08/13 02:12:43;;;;;;;17.35;14.25;;;;;;;;;;5001855;28;20058;-80
2021/08/13 02:15:11;;;;;;;16.23;14.73;;;;;;;;;;5001240;28;20058;-83
2021/08/13 02:17:40;;;;;;;16.55;13.43;;;;;;;;;;4981745;28;20046;-82
2021/08/13 02:20:09;;;;;;;14.65;13.35;;;;;;;;;;4981873;28;20506;-82
2021/08/13 02:22:36;;;;;;;15.50;14.00;;;;;;;;;;4982343;28;20073;-83
2021/08/13 02:25:05;;;;;;;18.63;16.80;;;;;;;;;;4982097;28;20049;-82
2021/08/13 02:27:32;;;;;;;17.42;15.93;;;;;;;;;;4982369;28;20047;-82
2021/08/13 02:29:58;;;;;;;19.75;15.48;;;;;;;;;;4981946;28;20472;-83
2021/08/13 02:32:26;;;;;;;16.40;15.00;;;;;;;;;;4982323;28;20046;-81
2021/08/13 02:34:52;;;;;;;15.57;14.38;;;;;;;;;;4982954;28;20051;-83
2021/08/13 02:37:22;;;;;;;16.20;14.70;;;;;;;;;;4983026;28;20488;-83
2021/08/13 02:39:52;;;;;;;15.80;14.05;;;;;;;;;;4983090;28;20431;-82
2021/08/13 02:42:24;;;;;;;14.85;13.55;;;;;;;;;;4982244;28;20054;-83
2021/08/13 02:44:53;;;;;;;15.35;13.98;;;;;;;;;;4981566;28;20082;-84
2021/08/13 02:47:20;;;;;;;16.65;15.05;;;;;;;;;;4976002;28;20525;-81
2021/08/13 02:49:53;;;;;;;15.98;14.57;;;;;;;;;;4987397;28;20046;-82
2021/08/13 02:52:25;;;;;;;16.33;14.50;;;;;;;;;;4994942;28;20050;-81
2021/08/13 02:54:52;;;;;;;19.65;18.25;;;;;;;;;;4994602;28;20046;-81
2021/08/13 02:57:21;;;;;;;15.80;14.48;;;;;;;;;;4994599;28;20260;-81
2021/08/13 02:59:49;;;;;;;19.17;17.67;;;;;;;;;;4994044;28;20050;-80
2021/08/13 03:02:16;;;;;;;16.25;14.90;;;;;;;;;;4994953;28;20050;-80
2021/08/13 03:04:45;;;;;;;21.10;19.60;;;;;;;;;;4994447;28;20054;-80
2021/08/13 03:07:12;;;;;;;18.58;17.05;;;;;;;;;;4994812;28;20053;-81
2021/08/13 03:09:39;;;;;;;21.73;19.80;;;;;;;;;;4994252;28;20054;-81
2021/08/13 03:12:06;;;;;;;22.23;20.63;;;;;;;;;;4993878;28;20452;-80
2021/08/13 03:14:34;;;;;;;21.67;20.15;;;;;;;;;;4994204;28;20046;-80
2021/08/13 03:17:05;;;;;;;23.38;21.55;;;;;;;;;;4994177;28;20490;-81
2021/08/13 03:19:31;;;;;;;26.25;24.55;;;;;;;;;;4993592;28;20050;-81
2021/08/13 03:21:58;;;;;;;19.17;17.35;;;;;;;;;;4993650;28;20046;-80
2021/08/13 03:24:25;;;;;;;19.80;18.40;;;;;;;;;;4992667;28;20058;-80
2021/08/13 03:26:52;;;;;;;19.15;17.33;;;;;;;;;;4992962;28;20061;-81
2021/08/13 03:29:18;;;;;;;24.00;22.20;;;;;;;;;;4976902;28;20053;-81
2021/08/13 03:31:47;;;;;;;25.83;24.10;;;;;;;;;;4994051;28;20050;-81
2021/08/13 03:34:15;;;;;;;24.85;23.05;;;;;;;;;;4993903;28;20053;-81
2021/08/13 03:36:42;;;;;;;22.27;20.65;;;;;;;;;;4994110;28;20079;-81
2021/08/13 03:39:11;;;;;;;23.85;21.98;;;;;;;;;;4992852;28;20510;-80
2021/08/13 03:41:38;;;;;;;22.85;21.05;;;;;;;;;;4993802;28;20054;-81
2021/08/13 03:44:05;;;;;;;22.60;20.80;;;;;;;;;;4993514;28;20427;-81
2021/08/13 03:46:31;;;;;;;25.85;23.60;;;;;;;;;;4993696;28;20215;-81
2021/08/13 03:48:59;;;;;;;21.15;19.75;;;;;;;;;;4993581;28;20059;-80
2021/08/13 03:51:26;;;;;;;22.20;20.60;;;;;;;;;;4993200;28;20747;-80
2021/08/13 03:53:52;;;;;;;20.95;18.90;;;;;;;;;;4993897;28;20054;-80
2021/08/13 03:56:19;;;;;;;21.75;20.15;;;;;;;;;;4993706;28;20046;-80
2021/08/13 03:58:45;;;;;;;19.20;17.67;;;;;;;;;;4993860;28;20152;-80
2021/08/13 04:01:11;;;;;;;24.25;22.50;;;;;;;;;;4993639;28;20423;-80
2021/08/13 04:03:38;;;;;;;25.50;23.65;;;;;;;;;;4975555;28;20067;-81
2021/08/13 04:06:06;;;;;;;22.23;20.42;;;;;;;;;;4974720;28;20050;-81
2021/08/13 04:08:33;;;;;;;26.90;25.13;;;;;;;;;;4975085;28;20047;-81
2021/08/13 04:11:00;;;;;;;22.05;20.33;;;;;;;;;;4972909;28;20055;-82
2021/08/13 04:13:26;;;;;;;24.40;22.67;;;;;;;;;;4974091;28;20047;-81
2021/08/13 04:15:53;;;;;;;24.20;22.35;;;;;;;;;;4973958;28;20562;-81
2021/08/13 04:18:20;;;;;;;21.55;19.70;;;;;;;;;;4974396;28;20051;-81
2021/08/13 04:20:46;;;;;;;21.60;19.90;;;;;;;;;;4985621;28;20076;-81
2021/08/13 04:23:14;;;;;;;26.13;24.25;;;;;;;;;;4993715;28;20042;-81
2021/08/13 04:25:41;;;;;;;24.75;23.02;;;;;;;;;;4993385;28;20046;-82
2021/08/13 04:28:07;;;;;;;18.30;16.92;;;;;;;;;;4992443;28;20502;-81
2021/08/13 04:30:34;;;;;;;23.92;22.08;;;;;;;;;;4992815;28;20050;-81
2021/08/13 04:33:01;;;;;;;21.98;20.17;;;;;;;;;;4992145;28;20073;-81
2021/08/13 04:35:27;;;;;;;25.20;22.98;;;;;;;;;;4992969;28;20050;-81
2021/08/13 04:37:54;;;;;;;22.13;20.13;;;;;;;;;;4993724;28;20050;-81
2021/08/13 04:40:22;;;;;;;21.15;19.45;;;;;;;;;;4992274;28;20046;-82
2021/08/13 04:42:48;;;;;;;22.08;20.52;;;;;;;;;;4993433;28;20043;-81
2021/08/13 04:45:15;;;;;;;22.33;20.75;;;;;;;;;;4993167;28;20054;-81
2021/08/13 04:47:42;;;;;;;22.35;20.73;;;;;;;;;;4992409;28;20407;-81
2021/08/13 04:50:09;;;;;;;26.23;24.48;;;;;;;;;;4993341;28;20038;-81
2021/08/13 04:52:43;;;;;;;31.15;28.95;;;;;;;;;;4993787;28;20054;-81
2021/08/13 04:55:10;;;;;;;24.48;22.77;;;;;;;;;;4993001;28;20050;-81
2021/08/13 04:57:38;;;;;;;32.42;30.10;;;;;;;;;;4991892;28;20046;-81
2021/08/13 05:00:07;;;;;;;27.27;25.27;;;;;;;;;;4993012;28;20059;-82
2021/08/13 05:02:36;;;;;;;25.92;24.15;;;;;;;;;;4993858;28;20046;-81
2021/08/13 05:05:03;;;;;;;27.10;25.00;;;;;;;;;;4992920;28;20066;-81
2021/08/13 05:07:31;;;;;;;29.48;27.58;;;;;;;;;;4992090;28;20491;-81
2021/08/13 05:09:57;;;;;;;30.35;28.35;;;;;;;;;;4993156;28;20054;-82
2021/08/13 05:12:25;;;;;;;31.83;29.77;;;;;;;;;;4995876;28;20419;-82
2021/08/13 05:14:52;;;;;;;31.20;29.35;;;;;;;;;;4996657;28;20510;-82
2021/08/13 05:17:19;;;;;;;27.65;25.63;;;;;;;;;;4998548;28;20101;-83
2021/08/13 05:19:46;;;;;;;34.65;32.47;;;;;;;;;;4998736;28;20046;-84
2021/08/13 05:22:12;;;;;;;38.35;35.72;;;;;;;;;;5000208;28;20051;-82
2021/08/13 05:24:39;;;;;;;42.17;39.50;;;;;;;;;;4999618;28;20052;-83
2021/08/13 05:27:06;;;;;;;40.53;38.08;;;;;;;;;;4999671;28;20492;-84
2021/08/13 05:29:33;;;;;;;46.33;43.53;;;;;;;;;;4999057;28;20047;-83
2021/08/13 05:32:01;;;;;;;50.08;47.33;;;;;;;;;;4998665;28;20484;-83
2021/08/13 05:34:28;;;;;;;43.08;40.55;;;;;;;;;;4997904;28;20053;-83
2021/08/13 05:36:55;;;;;;;64.32;60.85;;;;;;;;;;4994991;28;20047;-83
2021/08/13 05:39:22;;;;;;;58.13;54.90;;;;;;;;;;4996614;28;20514;-82
2021/08/13 05:41:48;;;;;;;49.35;46.42;;;;;;;;;;4998226;28;20046;-82
2021/08/13 05:44:15;;;;;;;60.08;56.75;;;;;;;;;;4997521;28;20706;-83
2021/08/13 05:46:42;;;;;;;56.10;53.00;;;;;;;;;;4997740;28;20054;-86
2021/08/13 05:49:10;;;;;;;52.80;49.95;;;;;;;;;;4996935;28;20050;-83
2021/08/13 05:51:37;;;;;;;43.30;41.00;;;;;;;;;;4996637;28;20046;-83
2021/08/13 05:54:03;;;;;;;44.58;41.45;;;;;;;;;;4994946;28;20051;-83
2021/08/13 05:56:30;;;;;;;46.88;44.10;;;;;;;;;;4994978;28;20047;-83
2021/08/13 05:59:00;;;;;;;52.20;49.38;;;;;;;;;;4995193;28;20053;-83
2021/08/13 06:01:27;;;;;;;49.63;46.95;;;;;;;;;;4980278;28;20063;-84
2021/08/13 06:03:53;;;;;;;49.97;47.03;;;;;;;;;;4976208;28;20129;-83
2021/08/13 06:06:21;;;;;;;49.25;46.55;;;;;;;;;;4976158;28;20054;-84
2021/08/13 06:08:48;;;;;;;47.65;44.97;;;;;;;;;;4980953;28;20039;-84
2021/08/13 06:11:15;;;;;;;44.65;42.28;;;;;;;;;;4995066;28;20050;-84
2021/08/13 06:13:42;;;;;;;40.95;38.65;;;;;;;;;;4996027;28;20057;-83
2021/08/13 06:16:08;;;;;;;40.67;38.38;;;;;;;;;;4995443;28;20407;-84
2021/08/13 06:18:35;;;;;;;41.67;39.45;;;;;;;;;;4995960;28;20388;-83
2021/08/13 06:21:03;;;;;;;31.15;29.40;;;;;;;;;;4994583;28;20050;-85
2021/08/13 06:23:31;;;;;;;41.17;38.67;;;;;;;;;;4995204;28;20145;-84
2021/08/13 06:25:58;;;;;;;42.42;39.95;;;;;;;;;;4996111;28;20403;-83
2021/08/13 06:28:25;;;;;;;37.15;34.70;;;;;;;;;;4994779;28;20058;-84
2021/08/13 06:30:51;;;;;;;37.35;35.08;;;;;;;;;;4995812;28;20046;-85
2021/08/13 06:33:18;;;;;;;31.38;29.23;;;;;;;;;;4995950;28;20050;-83
2021/08/13 06:35:45;;;;;;;33.95;32.10;;;;;;;;;;4992967;28;20057;-82
2021/08/13 06:38:12;;;;;;;31.50;29.50;;;;;;;;;;4995555;28;20054;-85
2021/08/13 06:40:41;;;;;;;30.85;29.10;;;;;;;;;;4994666;28;20053;-84
2021/08/13 06:43:08;;;;;;;37.25;35.00;;;;;;;;;;4996567;28;20066;-85
2021/08/13 06:45:34;;;;;;;39.65;37.47;;;;;;;;;;4995022;28;20046;-84
2021/08/13 06:48:02;;;;;;;38.40;35.90;;;;;;;;;;4995856;28;20161;-84
2021/08/13 06:50:29;;;;;;;44.70;42.10;;;;;;;;;;4993253;28;20042;-84
2021/08/13 06:52:56;;;;;;;44.25;41.80;;;;;;;;;;4996463;28;20042;-83
2021/08/13 06:55:22;;;;;;;43.85;41.55;;;;;;;;;;4994612;28;20054;-83
2021/08/13 06:57:51;;;;;;;44.30;41.70;;;;;;;;;;4993338;28;20045;-84
2021/08/13 07:00:18;;;;;;;45.42;42.78;;;;;;;;;;4978797;28;20084;-85
2021/08/13 07:02:46;;;;;;;48.97;46.17;;;;;;;;;;4995795;28;20058;-85
2021/08/13 07:05:13;;;;;;;48.13;45.45;;;;;;;;;;4995910;28;20046;-84
2021/08/13 07:07:40;;;;;;;49.70;46.80;;;;;;;;;;4996892;28;20042;-85
2021/08/13 07:10:09;;;;;;;45.45;42.83;;;;;;;;;;4996375;28;20073;-84
2021/08/13 07:12:36;;;;;;;47.13;44.22;;;;;;;;;;4994821;28;20049;-84
2021/08/13 07:15:05;;;;;;;41.30;38.85;;;;;;;;;;4997565;28;20050;-84
2021/08/13 07:17:32;;;;;;;39.13;36.55;;;;;;;;;;4996883;28;20046;-84
2021/08/13 07:19:58;;;;;;;40.72;38.15;;;;;;;;;;4980889;28;20499;-85
2021/08/13 07:22:25;;;;;;;36.80;34.67;;;;;;;;;;4993899;28;20459;-85
2021/08/13 07:24:52;;;;;;;33.47;31.75;;;;;;;;;;4992311;28;20043;-85
2021/08/13 07:27:19;;;;;;;31.98;30.05;;;;;;;;;;4991838;28;20042;-85
2021/08/13 07:29:46;;;;;;;29.60;28.00;;;;;;;;;;4995400;28;20042;-84
2021/08/13 07:32:14;;;;;;;28.70;27.17;;;;;;;;;;4996539;28;20510;-85
2021/08/13 07:34:41;;;;;;;33.22;31.30;;;;;;;;;;4993966;28;20503;-86
2021/08/13 07:37:08;;;;;;;28.60;26.80;;;;;;;;;;4992520;28;20121;-85
2021/08/13 07:39:35;;;;;;;26.25;24.75;;;;;;;;;;4973434;28;20049;-85
2021/08/13 07:42:02;;;;;;;27.50;25.85;;;;;;;;;;4995063;28;20061;-85
2021/08/13 07:44:28;;;;;;;29.92;28.08;;;;;;;;;;4992932;28;20050;-85
2021/08/13 07:46:55;;;;;;;25.67;24.33;;;;;;;;;;4994365;28;20495;-85
2021/08/13 07:49:23;;;;;;;26.30;24.67;;;;;;;;;;4978949;28;20065;-84
2021/08/13 07:51:50;;;;;;;25.77;24.13;;;;;;;;;;4995361;28;20057;-85
2021/08/13 07:54:17;;;;;;;32.35;30.70;;;;;;;;;;4994657;28;20467;-86
2021/08/13 07:56:44;;;;;;;29.60;27.67;;;;;;;;;;4992621;28;20050;-86
2021/08/13 07:59:11;;;;;;;30.00;28.48;;;;;;;;;;4975543;28;20074;-85
2021/08/13 08:01:37;;;;;;;30.08;28.35;;;;;;;;;;4991094;28;20446;-85
2021/08/13 08:04:04;;;;;;;55.28;52.58;;;;;;;;;;4994891;28;20043;-86
2021/08/13 08:06:34;;;;;;;35.67;33.88;;;;;;;;;;4987775;28;20057;-86
2021/08/13 08:09:00;;;;;;;33.00;30.65;;;;;;;;;;4991365;28;20077;-86
2021/08/13 08:11:27;;;;;;;29.40;27.52;;;;;;;;;;4991129;28;20443;-87
2021/08/13 08:13:54;;;;;;;32.03;29.83;;;;;;;;;;4992394;28;20038;-86
2021/08/13 08:16:21;;;;;;;32.85;31.10;;;;;;;;;;4992940;28;20054;-84
2021/08/13 08:18:47;;;;;;;32.83;30.80;;;;;;;;;;4992731;28;20446;-84
2021/08/13 08:21:14;;;;;;;47.25;44.88;;;;;;;;;;4991684;28;20050;-87
2021/08/13 08:23:42;;;;;;;39.63;37.53;;;;;;;;;;4991564;28;20050;-86
2021/08/13 08:26:09;;;;;;;79.65;75.78;;;;;;;;;;4990199;28;20043;-87
2021/08/13 08:28:41;;;;;;;39.38;36.97;;;;;;;;;;4991776;28;20058;-87
2021/08/13 08:31:09;;;;;;;40.00;37.83;;;;;;;;;;4978922;28;20076;-86
2021/08/13 08:33:36;;;;;;;46.15;42.85;;;;;;;;;;4972979;28;20049;-86
2021/08/13 08:36:02;;;;;;;47.40;44.97;;;;;;;;;;4975492;28;20082;-83
2021/08/13 08:38:29;;;;;;;39.25;37.35;;;;;;;;;;4991043;28;20419;-84
2021/08/13 08:40:59;;;;;;;49.17;46.38;;;;;;;;;;4993008;28;20054;-83
2021/08/13 08:43:26;;;;;;;37.80;35.88;;;;;;;;;;4992151;28;20488;-83
2021/08/13 08:45:52;;;;;;;40.42;38.33;;;;;;;;;;4995089;28;20042;-84
2021/08/13 08:48:20;;;;;;;35.58;33.92;;;;;;;;;;4995623;28;20061;-86
2021/08/13 08:50:47;;;;;;;35.67;33.83;;;;;;;;;;4994465;28;20042;-85
2021/08/13 08:53:16;;;;;;;42.63;40.53;;;;;;;;;;4994966;28;20047;-85
2021/08/13 08:55:43;;;;;;;5.18;2.72;;;;;;;;;;4995126;28;20065;-85
2021/08/13 08:58:12;;;;;;;6.95;2.90;;;;;;;;;;4995899;28;20042;-85
2021/08/13 09:00:39;;;;;;;5.50;2.60;;;;;;;;;;5009188;28;20085;-87
2021/08/13 09:03:07;;;;;;;6.50;2.95;;;;;;;;;;4994685;28;20105;-84
2021/08/13 09:05:34;;;;;;;4.65;3.05;;;;;;;;;;4994963;28;20080;-84
2021/08/13 09:08:01;;;;;;;8.70;2.92;;;;;;;;;;4995391;28;20046;-84
2021/08/13 09:10:28;;;;;;;3.72;2.30;;;;;;;;;;4995964;28;20042;-84
2021/08/13 09:12:55;;;;;;;4.53;2.30;;;;;;;;;;4996801;28;20672;-84
2021/08/13 09:15:31;;;;;;;5.95;2.92;;;;;;;;;;4988330;28;20050;-84
2021/08/13 09:18:11;;;;;;;5.82;2.70;;;;;;;;;;4991582;28;20046;-84
2021/08/13 09:20:39;;;;;;;6.70;3.25;;;;;;;;;;4995388;28;20054;-85
2021/08/13 09:23:07;;;;;;;5.35;2.50;;;;;;;;;;4995209;28;20050;-84
2021/08/13 09:25:33;;;;;;;6.18;2.85;;;;;;;;;;4994508;28;20058;-85
2021/08/13 09:28:00;;;;;;;5.20;2.58;;;;;;;;;;4987638;28;20392;-85
2021/08/13 09:30:31;;;;;;;6.32;2.50;;;;;;;;;;4976039;28;20082;-84
2021/08/13 09:33:00;;;;;;;4.70;2.65;;;;;;;;;;4974199;28;20061;-85
2021/08/13 09:35:31;;;;;;;5.65;2.85;;;;;;;;;;4976506;28;20057;-84
2021/08/13 09:37:58;;;;;;;6.97;2.78;;;;;;;;;;4976757;28;20051;-85
2021/08/13 09:40:25;;;;;;;5.50;2.50;;;;;;;;;;4976312;28;20054;-85
2021/08/13 09:43:01;;;;;;;6.30;2.50;;;;;;;;;;4986889;28;20057;-85
2021/08/13 09:45:29;;;;;;;6.13;2.75;;;;;;;;;;4979458;28;20058;-84
2021/08/13 09:47:56;;;;;;;7.45;2.80;;;;;;;;;;4994651;28;20054;-86
2021/08/13 09:50:34;;;;;;;4.13;2.15;;;;;;;;;;4996122;28;20061;-84
2021/08/13 09:53:09;;;;;;;4.25;2.60;;;;;;;;;;4995807;28;20050;-84
2021/08/13 09:55:36;;;;;;;8.73;3.42;;;;;;;;;;4996344;28;20043;-84
2021/08/13 09:58:03;;;;;;;6.85;2.85;;;;;;;;;;4995247;28;20447;-85
2021/08/13 10:00:43;;;;;;;6.47;2.67;;;;;;;;;;4995438;28;20054;-84
2021/08/13 10:03:10;;;;;;;10.43;2.95;;;;;;;;;;4995074;28;20054;-84
2021/08/13 10:05:37;;;;;;;5.20;2.67;;;;;;;;;;4995141;28;20050;-85
2021/08/13 10:08:05;;;;;;;7.60;3.03;;;;;;;;;;4993990;28;20046;-84
2021/08/13 10:10:33;;;;;;;6.05;2.65;;;;;;;;;;4995510;28;20054;-84
2021/08/13 10:13:01;;;;;;;5.20;2.50;;;;;;;;;;4995164;28;20042;-83
2021/08/13 10:15:35;;;;;;;6.70;2.67;;;;;;;;;;4994110;28;20050;-84
2021/08/13 10:18:03;;;;;;;6.13;2.40;;;;;;;;;;4995234;28;20484;-84
2021/08/13 10:20:32;;;;;;;5.38;3.22;;;;;;;;;;5010599;28;20046;-83
2021/08/13 10:23:00;;;;;;;8.32;2.97;;;;;;;;;;4995263;28;20129;-85
2021/08/13 10:25:27;;;;;;;7.15;3.15;;;;;;;;;;4994237;28;20053;-85
2021/08/13 10:27:54;;;;;;;5.07;2.78;;;;;;;;;;4994782;28;20182;-84
2021/08/13 10:30:22;;;;;;;8.95;2.90;;;;;;;;;;4995408;28;20053;-84
2021/08/13 10:32:52;;;;;;;7.47;3.10;;;;;;;;;;4978071;28;20042;-84
2021/08/13 10:35:20;;;;;;;6.93;3.00;;;;;;;;;;4996117;28;20109;-84
2021/08/13 10:37:47;;;;;;;7.03;2.95;;;;;;;;;;4995591;28;20677;-84
2021/08/13 10:40:14;;;;;;;9.00;2.78;;;;;;;;;;4994287;28;20051;-83
2021/08/13 10:42:43;;;;;;;10.60;2.92;;;;;;;;;;4994432;28;20065;-85
2021/08/13 10:45:12;;;;;;;8.98;3.05;;;;;;;;;;4996112;28;20085;-83
2021/08/13 10:47:42;;;;;;;18.95;4.88;;;;;;;;;;4996645;28;20050;-83
2021/08/13 10:50:12;;;;;;;11.57;3.03;;;;;;;;;;4996061;28;20046;-83
2021/08/13 10:52:42;;;;;;;6.78;3.38;;;;;;;;;;4995531;28;20046;-83
2021/08/13 10:55:09;;;;;;;5.63;2.90;;;;;;;;;;4995723;28;20053;-82
2021/08/13 10:57:59;;;;;;;6.88;3.25;;;;;;;;;;4996075;28;20043;-83
2021/08/13 11:00:26;;;;;;;7.00;2.60;;;;;;;;;;4996353;28;20043;-83
2021/08/13 11:03:19;;;;;;;7.10;3.10;;;;;;;;;;4996601;28;20054;-83
2021/08/13 11:05:55;;;;;;;5.53;2.55;;;;;;;;;;4996550;28;20066;-82
2021/08/13 11:08:22;;;;;;;9.10;3.17;;;;;;;;;;4995823;28;20546;-82
2021/08/13 11:10:55;;;;;;;8.88;3.17;;;;;;;;;;4996919;28;20050;-84
2021/08/13 11:13:22;;;;;;;6.65;3.88;;;;;;;;;;4976897;28;20050;-84
2021/08/13 11:15:49;;;;;;;7.28;2.90;;;;;;;;;;4976510;28;20404;-83
2021/08/13 11:18:30;;;;;;;8.55;3.10;;;;;;;;;;4993017;28;20050;-84
2021/08/13 11:20:59;;;;;;;5.72;2.75;;;;;;;;;;4996492;28;20042;-84
2021/08/13 11:23:26;;;;;;;7.55;3.55;;;;;;;;;;4995922;28;20054;-84
2021/08/13 11:25:54;;;;;;;5.70;3.25;;;;;;;;;;4996029;28;20061;-84
2021/08/13 11:28:23;;;;;;;8.90;3.20;;;;;;;;;;4995964;28;20408;-84
2021/08/13 11:30:51;;;;;;;7.50;3.80;;;;;;;;;;4995861;28;20050;-83
2021/08/13 11:33:37;;;;;;;6.65;3.15;;;;;;;;;;4995075;28;20043;-83
2021/08/13 11:36:05;;;;;;;7.85;3.67;;;;;;;;;;4995489;28;20050;-82
2021/08/13 11:39:02;;;;;;;6.35;3.00;;;;;;;;;;4995278;28;20050;-82
2021/08/13 11:41:29;;;;;;;7.05;2.95;;;;;;;;;;4961046;28;20050;-83
2021/08/13 11:43:59;;;;;;;7.25;3.53;;;;;;;;;;4994824;28;20046;-82
2021/08/13 11:46:27;;;;;;;7.63;3.38;;;;;;;;;;4993694;28;20050;-82
2021/08/13 11:48:58;;;;;;;8.75;4.47;;;;;;;;;;4995189;28;20046;-82
2021/08/13 11:51:27;;;;;;;9.35;4.45;;;;;;;;;;4995268;28;20046;-83
2021/08/13 11:53:54;;;;;;;7.13;3.35;;;;;;;;;;4995254;28;20054;-83
2021/08/13 11:56:24;;;;;;;9.02;3.60;;;;;;;;;;4994275;28;20050;-83
2021/08/13 11:58:58;;;;;;;7.20;4.15;;;;;;;;;;4993340;28;20066;-84
2021/08/13 12:01:26;;;;;;;7.38;3.92;;;;;;;;;;4995491;28;20061;-82
2021/08/13 12:03:54;;;;;;;10.65;3.72;;;;;;;;;;4994197;28;20081;-83
2021/08/13 12:06:20;;;;;;;9.27;3.55;;;;;;;;;;5010687;28;20053;-84
2021/08/13 12:08:49;;;;;;;7.70;3.67;;;;;;;;;;5010721;28;20050;-83
2021/08/13 12:11:22;;;;;;;9.38;3.97;;;;;;;;;;4995805;28;20392;-83
2021/08/13 12:13:49;;;;;;;9.30;3.90;;;;;;;;;;4995499;28;20078;-82
2021/08/13 12:16:18;;;;;;;7.53;3.80;;;;;;;;;;4995591;28;20077;-83
2021/08/13 12:18:44;;;;;;;9.02;3.97;;;;;;;;;;4995409;28;20508;-83
2021/08/13 12:21:10;;;;;;;10.70;3.70;;;;;;;;;;4996927;28;20054;-84
2021/08/13 12:23:37;;;;;;;9.43;4.38;;;;;;;;;;4998216;28;20082;-83
2021/08/13 12:26:05;;;;;;;6.22;3.70;;;;;;;;;;4999364;28;20046;-83
2021/08/13 12:28:33;;;;;;;7.75;3.97;;;;;;;;;;4990268;28;20043;-83
2021/08/13 12:31:05;;;;;;;9.80;4.15;;;;;;;;;;4980298;28;20042;-83
2021/08/13 12:33:32;;;;;;;7.70;4.05;;;;;;;;;;4980036;28;20377;-83
2021/08/13 12:35:59;;;;;;;5.18;3.53;;;;;;;;;;4981149;28;20043;-82
2021/08/13 12:38:33;;;;;;;10.35;3.45;;;;;;;;;;4980733;28;20055;-83
2021/08/13 12:41:00;;;;;;;8.32;3.22;;;;;;;;;;4980008;28;20047;-83
2021/08/13 12:43:28;;;;;;;7.82;3.90;;;;;;;;;;4980004;28;20055;-82
2021/08/13 12:45:55;;;;;;;9.15;3.85;;;;;;;;;;4979992;28;20046;-83
2021/08/13 12:48:23;;;;;;;7.30;3.25;;;;;;;;;;4979222;28;20047;-83
2021/08/13 12:50:54;;;;;;;6.60;3.00;;;;;;;;;;4997829;28;20054;-82
2021/08/13 12:53:32;;;;;;;9.05;3.63;;;;;;;;;;4998304;28;20054;-83
2021/08/13 12:55:59;;;;;;;10.25;3.42;;;;;;;;;;4998720;28;20078;-83
2021/08/13 12:58:33;;;;;;;7.28;3.33;;;;;;;;;;4997861;28;20046;-82
2021/08/13 13:01:23;;;;;;;8.77;3.35;;;;;;;;;;4998893;28;20046;-83
2021/08/13 13:04:13;;;;;;;9.13;3.60;;;;;;;;;;4998888;28;20054;-84
2021/08/13 13:06:40;;;;;;;6.05;3.10;;;;;;;;;;4999071;28;20046;-83
2021/08/13 13:09:06;;;;;;;8.07;3.40;;;;;;;;;;4999160;28;20474;-84
2021/08/13 13:11:34;;;;;;;7.60;3.13;;;;;;;;;;4998783;28;20442;-84
2021/08/13 13:14:04;;;;;;;7.38;3.25;;;;;;;;;;4999185;28;20086;-83
2021/08/13 13:16:32;;;;;;;6.70;3.45;;;;;;;;;;4999252;28;20056;-85
2021/08/13 13:19:15;;;;;;;6.55;2.80;;;;;;;;;;4999425;28;20046;-83
2021/08/13 13:21:42;;;;;;;8.02;3.22;;;;;;;;;;4999093;28;20046;-82
2021/08/13 13:24:18;;;;;;;5.65;3.30;;;;;;;;;;4999057;28;20089;-82
2021/08/13 13:26:57;;;;;;;5.93;3.03;;;;;;;;;;4999648;28;20054;-83
2021/08/13 13:29:34;;;;;;;7.28;3.17;;;;;;;;;;4999757;28;20046;-82
2021/08/13 13:32:00;;;;;;;9.50;3.20;;;;;;;;;;4999009;28;20078;-82
2021/08/13 13:34:27;;;;;;;5.75;3.10;;;;;;;;;;4999565;28;20057;-82
2021/08/13 13:36:53;;;;;;;9.50;2.80;;;;;;;;;;4993229;28;20050;-84
2021/08/13 13:39:20;;;;;;;5.78;3.70;;;;;;;;;;5013641;28;20454;-84
2021/08/13 13:41:47;;;;;;;7.13;3.40;;;;;;;;;;4998950;28;20054;-83
2021/08/13 13:44:22;;;;;;;9.10;3.53;;;;;;;;;;4999846;28;20046;-84
2021/08/13 13:46:50;;;;;;;6.78;3.03;;;;;;;;;;5000578;28;20054;-84
2021/08/13 13:49:17;;;;;;;6.43;3.42;;;;;;;;;;4999478;28;20058;-84
2021/08/13 13:51:43;;;;;;;6.85;3.30;;;;;;;;;;4999444;28;20050;-84
2021/08/13 13:54:10;;;;;;;11.35;3.15;;;;;;;;;;4999789;28;20046;-83
2021/08/13 13:56:36;;;;;;;10.60;4.00;;;;;;;;;;5014077;28;20442;-85
2021/08/13 13:59:03;;;;;;;6.82;3.13;;;;;;;;;;4999405;28;20540;-83
2021/08/13 14:01:29;;;;;;;9.20;3.35;;;;;;;;;;5000008;28;20050;-84
2021/08/13 14:03:57;;;;;;;8.55;2.95;;;;;;;;;;4987024;28;20058;-85
2021/08/13 14:06:24;;;;;;;8.35;3.13;;;;;;;;;;4999919;28;20046;-84
2021/08/13 14:08:52;;;;;;;8.35;3.15;;;;;;;;;;5000144;28;20054;-84
2021/08/13 14:11:18;;;;;;;9.13;3.17;;;;;;;;;;4999747;28;20073;-82
2021/08/13 14:13:45;;;;;;;7.30;2.53;;;;;;;;;;5000276;28;20049;-83
2021/08/13 14:16:11;;;;;;;8.75;3.38;;;;;;;;;;4999140;28;20051;-85
2021/08/13 14:18:38;;;;;;;8.20;3.40;;;;;;;;;;4999058;28;20422;-84
2021/08/13 14:21:05;;;;;;;8.82;3.03;;;;;;;;;;4997878;28;20053;-84
2021/08/13 14:23:32;;;;;;;12.05;2.83;;;;;;;;;;4999812;28;20411;-84
2021/08/13 14:26:00;;;;;;;11.05;2.92;;;;;;;;;;4999388;28;20392;-83
2021/08/13 14:28:27;;;;;;;7.28;3.25;;;;;;;;;;4997669;28;20503;-83
2021/08/13 14:30:53;;;;;;;7.80;3.05;;;;;;;;;;4999435;28;20051;-83
2021/08/13 14:33:20;;;;;;;8.85;3.10;;;;;;;;;;4998862;28;20046;-83
2021/08/13 14:35:46;;;;;;;10.35;3.35;;;;;;;;;;5000001;28;20054;-85